sensor_id;sensor_type;location;lat;lon;timestamp;P1;durP1;ratioP1;P2;durP2;ratioP2
2313;SDS011;42279;51.388;7.000;2023-07-20T00:01:50;12.80;;;11.47;;
2313;SDS011;42279;51.388;7.000;2023-07-20T00:04:16;11.77;;;10.90;;
2313;SDS011;42279;51.388;7.000;2023-07-20T00:06:44;12.37;;;11.40;;
2313;SDS011;42279;51.388;7.000;2023-07-20T00:09:19;11.87;;;11.07;;
2313;SDS011;42279;51.388;7.000;2023-07-20T00:11:50;10.97;;;10.37;;
2313;SDS011;42279;51.388;7.000;2023-07-20T00:14:19;13.50;;;10.30;;
2313;SDS011;42279;51.388;7.000;2023-07-20T00:16:50;10.53;;;9.83;;
2313;SDS011;42279;51.388;7.000;2023-07-20T00:19:26;10.27;;;9.50;;
2313;SDS011;42279;51.388;7.000;2023-07-20T00:21:52;9.53;;;8.83;;
2313;SDS011;42279;51.388;7.000;2023-07-20T01:29:54;9.97;;;9.37;;
2313;SDS011;42279;51.388;7.000;2023-07-20T02:01:42;9.27;;;8.77;;
2313;SDS011;42279;51.388;7.000;2023-07-20T02:31:41;11.00;;;9.90;;
2313;SDS011;42279;51.388;7.000;2023-07-20T02:34:09;12.10;;;11.10;;
2313;SDS011;42279;51.388;7.000;2023-07-20T02:36:38;12.90;;;11.80;;
2313;SDS011;42279;51.388;7.000;2023-07-20T02:39:04;11.60;;;10.50;;
2313;SDS011;42279;51.388;7.000;2023-07-20T02:41:32;13.53;;;11.60;;
2313;SDS011;42279;51.388;7.000;2023-07-20T02:43:58;13.50;;;12.17;;
2313;SDS011;42279;51.388;7.000;2023-07-20T02:46:25;12.90;;;11.37;;
2313;SDS011;42279;51.388;7.000;2023-07-20T02:48:51;15.20;;;11.47;;
2313;SDS011;42279;51.388;7.000;2023-07-20T02:51:17;14.33;;;11.90;;
2313;SDS011;42279;51.388;7.000;2023-07-20T02:53:43;15.20;;;11.90;;
2313;SDS011;42279;51.388;7.000;2023-07-20T02:56:09;13.40;;;12.20;;
2313;SDS011;42279;51.388;7.000;2023-07-20T02:58:35;13.40;;;11.30;;
2313;SDS011;42279;51.388;7.000;2023-07-20T03:01:03;11.60;;;10.70;;
2313;SDS011;42279;51.388;7.000;2023-07-20T03:03:29;11.67;;;10.77;;
2313;SDS011;42279;51.388;7.000;2023-07-20T03:05:55;12.00;;;10.73;;
2313;SDS011;42279;51.388;7.000;2023-07-20T03:08:22;11.17;;;10.20;;
2313;SDS011;42279;51.388;7.000;2023-07-20T03:10:49;12.03;;;10.83;;
2313;SDS011;42279;51.388;7.000;2023-07-20T03:13:15;12.27;;;11.30;;
2313;SDS011;42279;51.388;7.000;2023-07-20T03:15:41;12.53;;;11.33;;
2313;SDS011;42279;51.388;7.000;2023-07-20T03:18:07;12.00;;;10.90;;
2313;SDS011;42279;51.388;7.000;2023-07-20T03:20:34;12.30;;;11.07;;
2313;SDS011;42279;51.388;7.000;2023-07-20T03:23:01;11.80;;;10.80;;
2313;SDS011;42279;51.388;7.000;2023-07-20T03:25:27;11.07;;;10.03;;
2313;SDS011;42279;51.388;7.000;2023-07-20T03:27:53;10.83;;;9.87;;
2313;SDS011;42279;51.388;7.000;2023-07-20T03:30:19;11.90;;;10.70;;
2313;SDS011;42279;51.388;7.000;2023-07-20T03:32:45;11.00;;;10.20;;
2313;SDS011;42279;51.388;7.000;2023-07-20T03:35:11;12.10;;;10.40;;
2313;SDS011;42279;51.388;7.000;2023-07-20T03:40:52;14.30;;;10.90;;
2313;SDS011;42279;51.388;7.000;2023-07-20T03:43:18;10.57;;;9.80;;
2313;SDS011;42279;51.388;7.000;2023-07-20T03:45:44;11.03;;;10.13;;
2313;SDS011;42279;51.388;7.000;2023-07-20T03:50:55;11.87;;;10.30;;
2313;SDS011;42279;51.388;7.000;2023-07-20T03:53:21;11.83;;;10.67;;
2313;SDS011;42279;51.388;7.000;2023-07-20T03:55:51;11.23;;;10.40;;
2313;SDS011;42279;51.388;7.000;2023-07-20T03:58:17;12.40;;;11.10;;
2313;SDS011;42279;51.388;7.000;2023-07-20T04:00:47;13.00;;;11.10;;
2313;SDS011;42279;51.388;7.000;2023-07-20T04:03:14;12.27;;;11.10;;
2313;SDS011;42279;51.388;7.000;2023-07-20T04:05:40;11.40;;;10.50;;
2313;SDS011;42279;51.388;7.000;2023-07-20T04:08:15;13.03;;;11.83;;
2313;SDS011;42279;51.388;7.000;2023-07-20T04:10:53;12.33;;;11.00;;
2313;SDS011;42279;51.388;7.000;2023-07-20T04:13:19;13.00;;;11.67;;
2313;SDS011;42279;51.388;7.000;2023-07-20T04:15:45;15.97;;;11.90;;
2313;SDS011;42279;51.388;7.000;2023-07-20T04:18:11;12.40;;;11.10;;
2313;SDS011;42279;51.388;7.000;2023-07-20T04:20:37;12.47;;;11.37;;
2313;SDS011;42279;51.388;7.000;2023-07-20T04:23:03;13.83;;;12.13;;
2313;SDS011;42279;51.388;7.000;2023-07-20T04:25:29;12.80;;;11.70;;
2313;SDS011;42279;51.388;7.000;2023-07-20T04:28:03;13.97;;;12.33;;
2313;SDS011;42279;51.388;7.000;2023-07-20T04:30:29;13.53;;;12.33;;
2313;SDS011;42279;51.388;7.000;2023-07-20T04:32:55;14.30;;;11.80;;
2313;SDS011;42279;51.388;7.000;2023-07-20T04:38:06;15.27;;;12.23;;
2313;SDS011;42279;51.388;7.000;2023-07-20T04:40:32;16.80;;;13.00;;
2313;SDS011;42279;51.388;7.000;2023-07-20T04:42:58;19.60;;;15.10;;
2313;SDS011;42279;51.388;7.000;2023-07-20T04:45:24;22.97;;;15.97;;
2313;SDS011;42279;51.388;7.000;2023-07-20T04:47:52;19.70;;;16.47;;
2313;SDS011;42279;51.388;7.000;2023-07-20T04:50:19;18.20;;;16.57;;
2313;SDS011;42279;51.388;7.000;2023-07-20T04:52:50;21.00;;;19.00;;
2313;SDS011;42279;51.388;7.000;2023-07-20T04:55:30;21.60;;;19.33;;
2313;SDS011;42279;51.388;7.000;2023-07-20T04:57:58;20.77;;;18.60;;
2313;SDS011;42279;51.388;7.000;2023-07-20T05:03:03;22.67;;;20.37;;
2313;SDS011;42279;51.388;7.000;2023-07-20T05:05:34;21.27;;;19.33;;
2313;SDS011;42279;51.388;7.000;2023-07-20T05:45:07;20.77;;;18.97;;
2313;SDS011;42279;51.388;7.000;2023-07-20T05:50:44;15.90;;;14.53;;
2313;SDS011;42279;51.388;7.000;2023-07-20T05:56:17;10.27;;;9.67;;
2313;SDS011;42279;51.388;7.000;2023-07-20T06:01:47;10.60;;;10.10;;
2313;SDS011;42279;51.388;7.000;2023-07-20T06:04:17;11.60;;;10.77;;
2313;SDS011;42279;51.388;7.000;2023-07-20T06:06:43;11.60;;;10.77;;
2313;SDS011;42279;51.388;7.000;2023-07-20T06:09:15;11.93;;;11.03;;
2313;SDS011;42279;51.388;7.000;2023-07-20T06:23:49;8.40;;;7.90;;
2313;SDS011;42279;51.388;7.000;2023-07-20T06:35:45;6.57;;;6.23;;
2313;SDS011;42279;51.388;7.000;2023-07-20T06:41:20;5.93;;;5.73;;
2313;SDS011;42279;51.388;7.000;2023-07-20T06:43:49;6.70;;;6.30;;
2313;SDS011;42279;51.388;7.000;2023-07-20T06:46:24;6.00;;;5.70;;
2313;SDS011;42279;51.388;7.000;2023-07-20T06:48:50;5.07;;;4.97;;
2313;SDS011;42279;51.388;7.000;2023-07-20T06:51:16;4.17;;;4.17;;
2313;SDS011;42279;51.388;7.000;2023-07-20T06:53:43;3.90;;;3.90;;
2313;SDS011;42279;51.388;7.000;2023-07-20T06:56:19;4.00;;;3.90;;
2313;SDS011;42279;51.388;7.000;2023-07-20T07:01:48;2.90;;;2.80;;
2313;SDS011;42279;51.388;7.000;2023-07-20T07:04:14;2.53;;;2.53;;
2313;SDS011;42279;51.388;7.000;2023-07-20T07:28:09;2.80;;;2.80;;
2313;SDS011;42279;51.388;7.000;2023-07-20T07:48:56;4.03;;;3.93;;
2313;SDS011;42279;51.388;7.000;2023-07-20T07:54:26;3.33;;;3.33;;
2313;SDS011;42279;51.388;7.000;2023-07-20T07:56:52;2.20;;;2.20;;
2313;SDS011;42279;51.388;7.000;2023-07-20T07:59:18;1.93;;;1.93;;
2313;SDS011;42279;51.388;7.000;2023-07-20T08:01:44;1.83;;;1.83;;
2313;SDS011;42279;51.388;7.000;2023-07-20T08:04:09;2.33;;;2.33;;
2313;SDS011;42279;51.388;7.000;2023-07-20T08:06:36;2.20;;;2.20;;
2313;SDS011;42279;51.388;7.000;2023-07-20T08:12:05;2.40;;;2.30;;
2313;SDS011;42279;51.388;7.000;2023-07-20T08:20:38;2.10;;;2.10;;
2313;SDS011;42279;51.388;7.000;2023-07-20T08:23:04;2.10;;;2.00;;
2313;SDS011;42279;51.388;7.000;2023-07-20T08:25:30;2.50;;;2.50;;
2313;SDS011;42279;51.388;7.000;2023-07-20T08:27:56;1.03;;;1.03;;
2313;SDS011;42279;51.388;7.000;2023-07-20T08:30:22;0.80;;;0.80;;
2313;SDS011;42279;51.388;7.000;2023-07-20T08:32:48;1.23;;;1.23;;
2313;SDS011;42279;51.388;7.000;2023-07-20T08:35:14;1.30;;;1.07;;
2313;SDS011;42279;51.388;7.000;2023-07-20T08:37:40;1.10;;;1.00;;
2313;SDS011;42279;51.388;7.000;2023-07-20T08:40:06;0.60;;;0.60;;
2313;SDS011;42279;51.388;7.000;2023-07-20T08:42:34;1.27;;;1.17;;
2313;SDS011;42279;51.388;7.000;2023-07-20T08:45:04;0.80;;;0.80;;
2313;SDS011;42279;51.388;7.000;2023-07-20T08:47:31;0.63;;;0.63;;
2313;SDS011;42279;51.388;7.000;2023-07-20T08:49:57;0.60;;;0.60;;
2313;SDS011;42279;51.388;7.000;2023-07-20T08:52:25;0.90;;;0.90;;
2313;SDS011;42279;51.388;7.000;2023-07-20T08:54:51;1.27;;;1.27;;
2313;SDS011;42279;51.388;7.000;2023-07-20T08:57:18;0.90;;;0.90;;
2313;SDS011;42279;51.388;7.000;2023-07-20T08:59:48;1.30;;;1.30;;
2313;SDS011;42279;51.388;7.000;2023-07-20T09:02:15;1.20;;;1.20;;
2313;SDS011;42279;51.388;7.000;2023-07-20T09:04:43;1.00;;;1.00;;
2313;SDS011;42279;51.388;7.000;2023-07-20T09:07:10;1.30;;;1.30;;
2313;SDS011;42279;51.388;7.000;2023-07-20T09:09:40;1.03;;;1.03;;
2313;SDS011;42279;51.388;7.000;2023-07-20T09:12:12;1.27;;;1.27;;
2313;SDS011;42279;51.388;7.000;2023-07-20T09:14:39;2.10;;;1.50;;
2313;SDS011;42279;51.388;7.000;2023-07-20T09:17:08;1.27;;;1.27;;
2313;SDS011;42279;51.388;7.000;2023-07-20T09:19:38;1.00;;;1.00;;
2313;SDS011;42279;51.388;7.000;2023-07-20T09:22:04;1.53;;;1.53;;
2313;SDS011;42279;51.388;7.000;2023-07-20T09:24:31;1.60;;;1.60;;
2313;SDS011;42279;51.388;7.000;2023-07-20T09:26:57;1.60;;;1.60;;
2313;SDS011;42279;51.388;7.000;2023-07-20T09:29:28;1.80;;;1.80;;
2313;SDS011;42279;51.388;7.000;2023-07-20T09:32:04;2.27;;;2.07;;
2313;SDS011;42279;51.388;7.000;2023-07-20T09:37:50;1.30;;;1.30;;
2313;SDS011;42279;51.388;7.000;2023-07-20T09:52:49;1.67;;;1.57;;
2313;SDS011;42279;51.388;7.000;2023-07-20T09:55:15;1.30;;;1.30;;
2313;SDS011;42279;51.388;7.000;2023-07-20T09:57:41;1.40;;;1.40;;
2313;SDS011;42279;51.388;7.000;2023-07-20T10:09:19;1.27;;;1.27;;
2313;SDS011;42279;51.388;7.000;2023-07-20T10:14:59;1.63;;;1.63;;
2313;SDS011;42279;51.388;7.000;2023-07-20T10:17:33;1.93;;;1.93;;
2313;SDS011;42279;51.388;7.000;2023-07-20T10:19:59;1.53;;;1.53;;
2313;SDS011;42279;51.388;7.000;2023-07-20T10:22:27;2.97;;;2.87;;
2313;SDS011;42279;51.388;7.000;2023-07-20T10:24:55;2.60;;;2.60;;
2313;SDS011;42279;51.388;7.000;2023-07-20T10:27:23;2.20;;;2.20;;
2313;SDS011;42279;51.388;7.000;2023-07-20T10:29:50;2.50;;;2.40;;
2313;SDS011;42279;51.388;7.000;2023-07-20T10:32:20;1.50;;;1.50;;
2313;SDS011;42279;51.388;7.000;2023-07-20T10:34:52;1.97;;;1.97;;
2313;SDS011;42279;51.388;7.000;2023-07-20T10:51:47;3.30;;;3.30;;
2313;SDS011;42279;51.388;7.000;2023-07-20T10:57:29;4.03;;;3.90;;
2313;SDS011;42279;51.388;7.000;2023-07-20T11:12:14;5.80;;;5.60;;
2313;SDS011;42279;51.388;7.000;2023-07-20T11:23:52;2.70;;;2.70;;
2313;SDS011;42279;51.388;7.000;2023-07-20T11:29:25;2.47;;;2.07;;
2313;SDS011;42279;51.388;7.000;2023-07-20T11:44:07;2.73;;;2.63;;
2313;SDS011;42279;51.388;7.000;2023-07-20T11:46:38;2.27;;;2.27;;
2313;SDS011;42279;51.388;7.000;2023-07-20T11:49:04;2.77;;;2.10;;
2313;SDS011;42279;51.388;7.000;2023-07-20T11:51:31;1.37;;;1.37;;
2313;SDS011;42279;51.388;7.000;2023-07-20T11:53:57;2.17;;;2.07;;
2313;SDS011;42279;51.388;7.000;2023-07-20T11:56:24;1.33;;;1.33;;
2313;SDS011;42279;51.388;7.000;2023-07-20T11:58:53;1.50;;;1.50;;
2313;SDS011;42279;51.388;7.000;2023-07-20T12:01:20;2.93;;;1.40;;
2313;SDS011;42279;51.388;7.000;2023-07-20T12:03:47;1.60;;;1.60;;
2313;SDS011;42279;51.388;7.000;2023-07-20T12:06:14;1.60;;;1.60;;
2313;SDS011;42279;51.388;7.000;2023-07-20T12:08:43;1.83;;;1.83;;
2313;SDS011;42279;51.388;7.000;2023-07-20T12:11:09;2.10;;;2.10;;
2313;SDS011;42279;51.388;7.000;2023-07-20T12:13:37;2.30;;;2.30;;
2313;SDS011;42279;51.388;7.000;2023-07-20T12:16:06;2.20;;;2.20;;
2313;SDS011;42279;51.388;7.000;2023-07-20T12:18:35;2.30;;;2.30;;
2313;SDS011;42279;51.388;7.000;2023-07-20T12:21:02;2.00;;;1.90;;
2313;SDS011;42279;51.388;7.000;2023-07-20T12:23:34;4.00;;;3.90;;
2313;SDS011;42279;51.388;7.000;2023-07-20T12:26:00;1.77;;;1.77;;
2313;SDS011;42279;51.388;7.000;2023-07-20T12:28:27;7.63;;;2.10;;
2313;SDS011;42279;51.388;7.000;2023-07-20T12:30:53;2.03;;;1.93;;
2313;SDS011;42279;51.388;7.000;2023-07-20T12:33:24;1.33;;;1.33;;
2313;SDS011;42279;51.388;7.000;2023-07-20T12:35:50;1.00;;;1.00;;
2313;SDS011;42279;51.388;7.000;2023-07-20T12:38:26;1.73;;;1.63;;
2313;SDS011;42279;51.388;7.000;2023-07-20T12:40:56;1.50;;;1.50;;
2313;SDS011;42279;51.388;7.000;2023-07-20T12:43:23;3.13;;;1.63;;
2313;SDS011;42279;51.388;7.000;2023-07-20T12:45:49;2.10;;;2.10;;
2313;SDS011;42279;51.388;7.000;2023-07-20T12:48:15;2.60;;;2.20;;
2313;SDS011;42279;51.388;7.000;2023-07-20T12:50:43;2.50;;;2.50;;
2313;SDS011;42279;51.388;7.000;2023-07-20T12:53:09;2.80;;;2.60;;
2313;SDS011;42279;51.388;7.000;2023-07-20T12:55:35;3.10;;;3.10;;
2313;SDS011;42279;51.388;7.000;2023-07-20T13:07:12;2.87;;;2.67;;
2313;SDS011;42279;51.388;7.000;2023-07-20T13:15:45;1.90;;;1.80;;
2313;SDS011;42279;51.388;7.000;2023-07-20T13:18:11;2.23;;;2.13;;
2313;SDS011;42279;51.388;7.000;2023-07-20T13:20:43;2.73;;;1.80;;
2313;SDS011;42279;51.388;7.000;2023-07-20T13:23:11;2.33;;;2.30;;
2313;SDS011;42279;51.388;7.000;2023-07-20T13:25:37;2.17;;;2.00;;
2313;SDS011;42279;51.388;7.000;2023-07-20T13:28:04;2.60;;;2.50;;
2313;SDS011;42279;51.388;7.000;2023-07-20T13:30:30;1.33;;;1.23;;
2313;SDS011;42279;51.388;7.000;2023-07-20T13:32:56;1.50;;;1.40;;
2313;SDS011;42279;51.388;7.000;2023-07-20T13:35:22;1.50;;;1.50;;
2313;SDS011;42279;51.388;7.000;2023-07-20T13:37:48;2.10;;;2.10;;
2313;SDS011;42279;51.388;7.000;2023-07-20T13:40:15;2.60;;;1.70;;
2313;SDS011;42279;51.388;7.000;2023-07-20T13:48:50;2.40;;;2.30;;
2313;SDS011;42279;51.388;7.000;2023-07-20T13:51:16;1.83;;;1.77;;
2313;SDS011;42279;51.388;7.000;2023-07-20T13:53:45;1.20;;;1.20;;
2313;SDS011;42279;51.388;7.000;2023-07-20T13:56:11;1.90;;;1.90;;
2313;SDS011;42279;51.388;7.000;2023-07-20T13:58:39;1.20;;;1.20;;
2313;SDS011;42279;51.388;7.000;2023-07-20T14:01:05;1.33;;;1.30;;
2313;SDS011;42279;51.388;7.000;2023-07-20T14:03:31;1.37;;;1.27;;
2313;SDS011;42279;51.388;7.000;2023-07-20T14:05:57;1.47;;;1.47;;
2313;SDS011;42279;51.388;7.000;2023-07-20T14:08:23;1.40;;;1.40;;
2313;SDS011;42279;51.388;7.000;2023-07-20T14:10:49;1.37;;;0.90;;
2313;SDS011;42279;51.388;7.000;2023-07-20T14:13:15;1.27;;;1.27;;
2313;SDS011;42279;51.388;7.000;2023-07-20T14:15:41;2.03;;;2.03;;
2313;SDS011;42279;51.388;7.000;2023-07-20T14:18:07;1.03;;;1.03;;
2313;SDS011;42279;51.388;7.000;2023-07-20T14:20:33;1.10;;;1.10;;
2313;SDS011;42279;51.388;7.000;2023-07-20T14:23:00;1.03;;;1.03;;
2313;SDS011;42279;51.388;7.000;2023-07-20T14:25:26;1.30;;;1.20;;
2313;SDS011;42279;51.388;7.000;2023-07-20T14:27:52;3.23;;;1.00;;
2313;SDS011;42279;51.388;7.000;2023-07-20T14:30:18;1.37;;;1.37;;
2313;SDS011;42279;51.388;7.000;2023-07-20T14:32:44;1.57;;;1.57;;
2313;SDS011;42279;51.388;7.000;2023-07-20T14:35:10;0.90;;;0.90;;
2313;SDS011;42279;51.388;7.000;2023-07-20T14:37:36;1.10;;;1.10;;
2313;SDS011;42279;51.388;7.000;2023-07-20T14:40:02;1.40;;;1.40;;
2313;SDS011;42279;51.388;7.000;2023-07-20T14:42:30;1.00;;;1.00;;
2313;SDS011;42279;51.388;7.000;2023-07-20T14:44:57;1.40;;;1.40;;
2313;SDS011;42279;51.388;7.000;2023-07-20T14:47:23;1.50;;;1.50;;
2313;SDS011;42279;51.388;7.000;2023-07-20T14:49:49;1.20;;;1.20;;
2313;SDS011;42279;51.388;7.000;2023-07-20T14:52:15;8.70;;;1.80;;
2313;SDS011;42279;51.388;7.000;2023-07-20T14:54:42;0.97;;;0.97;;
2313;SDS011;42279;51.388;7.000;2023-07-20T14:57:08;1.90;;;1.30;;
2313;SDS011;42279;51.388;7.000;2023-07-20T14:59:39;2.13;;;2.13;;
2313;SDS011;42279;51.388;7.000;2023-07-20T15:02:06;1.53;;;1.47;;
2313;SDS011;42279;51.388;7.000;2023-07-20T15:04:33;1.60;;;1.60;;
2313;SDS011;42279;51.388;7.000;2023-07-20T15:06:59;1.30;;;1.30;;
2313;SDS011;42279;51.388;7.000;2023-07-20T15:09:25;1.30;;;1.00;;
2313;SDS011;42279;51.388;7.000;2023-07-20T15:11:51;1.50;;;1.50;;
2313;SDS011;42279;51.388;7.000;2023-07-20T15:14:17;1.20;;;1.20;;
2313;SDS011;42279;51.388;7.000;2023-07-20T15:16:43;1.67;;;1.57;;
2313;SDS011;42279;51.388;7.000;2023-07-20T15:19:09;1.53;;;1.53;;
2313;SDS011;42279;51.388;7.000;2023-07-20T15:21:38;1.67;;;1.57;;
2313;SDS011;42279;51.388;7.000;2023-07-20T15:24:04;2.03;;;2.03;;
2313;SDS011;42279;51.388;7.000;2023-07-20T15:26:31;1.67;;;1.57;;
2313;SDS011;42279;51.388;7.000;2023-07-20T15:28:58;2.60;;;2.50;;
2313;SDS011;42279;51.388;7.000;2023-07-20T15:31:24;1.20;;;1.20;;
2313;SDS011;42279;51.388;7.000;2023-07-20T15:33:51;1.10;;;1.10;;
2313;SDS011;42279;51.388;7.000;2023-07-20T15:36:17;1.17;;;1.10;;
2313;SDS011;42279;51.388;7.000;2023-07-20T15:38:43;1.63;;;1.63;;
2313;SDS011;42279;51.388;7.000;2023-07-20T15:41:15;1.20;;;1.20;;
2313;SDS011;42279;51.388;7.000;2023-07-20T15:58:42;1.67;;;1.63;;
2313;SDS011;42279;51.388;7.000;2023-07-20T16:01:08;1.77;;;1.50;;
2313;SDS011;42279;51.388;7.000;2023-07-20T16:03:35;1.20;;;1.20;;
2313;SDS011;42279;51.388;7.000;2023-07-20T16:06:01;2.33;;;1.73;;
2313;SDS011;42279;51.388;7.000;2023-07-20T16:08:28;1.60;;;1.60;;
2313;SDS011;42279;51.388;7.000;2023-07-20T16:10:54;1.50;;;1.50;;
2313;SDS011;42279;51.388;7.000;2023-07-20T16:13:22;1.43;;;1.40;;
2313;SDS011;42279;51.388;7.000;2023-07-20T16:15:51;1.80;;;1.80;;
2313;SDS011;42279;51.388;7.000;2023-07-20T16:18:17;2.03;;;2.03;;
2313;SDS011;42279;51.388;7.000;2023-07-20T16:20:43;1.20;;;1.20;;
2313;SDS011;42279;51.388;7.000;2023-07-20T16:23:10;1.83;;;1.83;;
2313;SDS011;42279;51.388;7.000;2023-07-20T16:25:36;1.47;;;1.47;;
2313;SDS011;42279;51.388;7.000;2023-07-20T16:28:02;1.67;;;1.67;;
2313;SDS011;42279;51.388;7.000;2023-07-20T16:30:31;1.47;;;1.47;;
2313;SDS011;42279;51.388;7.000;2023-07-20T16:32:57;2.07;;;1.97;;
2313;SDS011;42279;51.388;7.000;2023-07-20T16:35:23;1.80;;;1.70;;
2313;SDS011;42279;51.388;7.000;2023-07-20T16:37:49;1.60;;;1.60;;
2313;SDS011;42279;51.388;7.000;2023-07-20T16:40:15;1.60;;;1.60;;
2313;SDS011;42279;51.388;7.000;2023-07-20T16:42:41;1.50;;;1.40;;
2313;SDS011;42279;51.388;7.000;2023-07-20T16:45:07;1.80;;;1.80;;
2313;SDS011;42279;51.388;7.000;2023-07-20T16:47:34;1.90;;;1.80;;
2313;SDS011;42279;51.388;7.000;2023-07-20T16:50:00;3.63;;;3.40;;
2313;SDS011;42279;51.388;7.000;2023-07-20T16:52:27;3.40;;;3.20;;
2313;SDS011;42279;51.388;7.000;2023-07-20T16:54:53;5.07;;;2.77;;
2313;SDS011;42279;51.388;7.000;2023-07-20T16:57:20;2.50;;;2.50;;
2313;SDS011;42279;51.388;7.000;2023-07-20T16:59:46;4.27;;;3.97;;
2313;SDS011;42279;51.388;7.000;2023-07-20T17:02:12;6.57;;;6.07;;
2313;SDS011;42279;51.388;7.000;2023-07-20T17:04:38;2.10;;;2.10;;
2313;SDS011;42279;51.388;7.000;2023-07-20T17:07:04;2.07;;;2.07;;
2313;SDS011;42279;51.388;7.000;2023-07-20T17:09:30;1.63;;;1.63;;
2313;SDS011;42279;51.388;7.000;2023-07-20T17:11:57;2.53;;;2.30;;
2313;SDS011;42279;51.388;7.000;2023-07-20T17:14:23;1.70;;;1.70;;
2313;SDS011;42279;51.388;7.000;2023-07-20T17:16:49;3.40;;;3.30;;
2313;SDS011;42279;51.388;7.000;2023-07-20T17:19:16;2.50;;;2.30;;
2313;SDS011;42279;51.388;7.000;2023-07-20T17:21:43;2.20;;;2.10;;
2313;SDS011;42279;51.388;7.000;2023-07-20T17:24:09;2.30;;;2.30;;
2313;SDS011;42279;51.388;7.000;2023-07-20T17:26:36;2.00;;;2.00;;
2313;SDS011;42279;51.388;7.000;2023-07-20T17:29:02;2.20;;;2.10;;
2313;SDS011;42279;51.388;7.000;2023-07-20T17:31:29;2.00;;;1.90;;
2313;SDS011;42279;51.388;7.000;2023-07-20T17:33:55;3.63;;;2.23;;
2313;SDS011;42279;51.388;7.000;2023-07-20T17:51:42;1.80;;;1.80;;
2313;SDS011;42279;51.388;7.000;2023-07-20T17:54:08;1.83;;;1.83;;
2313;SDS011;42279;51.388;7.000;2023-07-20T17:56:35;1.97;;;1.97;;
2313;SDS011;42279;51.388;7.000;2023-07-20T17:59:02;1.97;;;1.97;;
2313;SDS011;42279;51.388;7.000;2023-07-20T18:01:28;2.00;;;1.90;;
2313;SDS011;42279;51.388;7.000;2023-07-20T18:03:54;1.93;;;1.93;;
2313;SDS011;42279;51.388;7.000;2023-07-20T18:06:20;2.23;;;2.20;;
2313;SDS011;42279;51.388;7.000;2023-07-20T18:08:45;1.90;;;1.80;;
2313;SDS011;42279;51.388;7.000;2023-07-20T18:11:11;3.73;;;3.43;;
2313;SDS011;42279;51.388;7.000;2023-07-20T18:13:37;3.27;;;3.17;;
2313;SDS011;42279;51.388;7.000;2023-07-20T18:16:03;3.97;;;2.73;;
2313;SDS011;42279;51.388;7.000;2023-07-20T18:18:29;2.80;;;2.40;;
2313;SDS011;42279;51.388;7.000;2023-07-20T18:45:31;2.20;;;2.20;;
2313;SDS011;42279;51.388;7.000;2023-07-20T19:02:57;3.13;;;2.97;;
2313;SDS011;42279;51.388;7.000;2023-07-20T19:20:48;4.00;;;3.70;;
2313;SDS011;42279;51.388;7.000;2023-07-20T19:23:14;4.17;;;3.87;;
2313;SDS011;42279;51.388;7.000;2023-07-20T19:25:40;3.10;;;3.03;;
2313;SDS011;42279;51.388;7.000;2023-07-20T19:31:09;2.80;;;2.80;;
2313;SDS011;42279;51.388;7.000;2023-07-20T19:33:35;14.73;;;13.57;;
2313;SDS011;42279;51.388;7.000;2023-07-20T19:36:01;13.40;;;12.40;;
2313;SDS011;42279;51.388;7.000;2023-07-20T19:38:27;12.23;;;11.23;;
2313;SDS011;42279;51.388;7.000;2023-07-20T19:40:53;10.80;;;7.50;;
2313;SDS011;42279;51.388;7.000;2023-07-20T19:43:20;6.27;;;5.70;;
2313;SDS011;42279;51.388;7.000;2023-07-20T19:45:47;4.00;;;3.73;;
2313;SDS011;42279;51.388;7.000;2023-07-20T19:48:14;5.10;;;4.70;;
2313;SDS011;42279;51.388;7.000;2023-07-20T19:50:43;4.50;;;4.07;;
2313;SDS011;42279;51.388;7.000;2023-07-20T19:53:11;2.40;;;2.40;;
2313;SDS011;42279;51.388;7.000;2023-07-20T19:55:38;2.57;;;2.47;;
2313;SDS011;42279;51.388;7.000;2023-07-20T19:58:04;3.00;;;2.83;;
2313;SDS011;42279;51.388;7.000;2023-07-20T20:00:30;4.90;;;4.47;;
2313;SDS011;42279;51.388;7.000;2023-07-20T20:02:56;4.17;;;3.97;;
2313;SDS011;42279;51.388;7.000;2023-07-20T20:05:22;3.43;;;3.43;;
2313;SDS011;42279;51.388;7.000;2023-07-20T20:07:50;6.17;;;3.30;;
2313;SDS011;42279;51.388;7.000;2023-07-20T20:10:16;3.27;;;3.07;;
2313;SDS011;42279;51.388;7.000;2023-07-20T20:12:42;2.63;;;2.43;;
2313;SDS011;42279;51.388;7.000;2023-07-20T20:15:08;2.60;;;2.40;;
2313;SDS011;42279;51.388;7.000;2023-07-20T20:17:34;2.63;;;2.60;;
2313;SDS011;42279;51.388;7.000;2023-07-20T20:20:01;4.57;;;2.87;;
2313;SDS011;42279;51.388;7.000;2023-07-20T20:22:26;2.50;;;2.50;;
2313;SDS011;42279;51.388;7.000;2023-07-20T20:24:52;2.90;;;2.77;;
2313;SDS011;42279;51.388;7.000;2023-07-20T20:39:49;2.40;;;2.30;;
2313;SDS011;42279;51.388;7.000;2023-07-20T21:13:24;3.70;;;3.57;;
2313;SDS011;42279;51.388;7.000;2023-07-20T21:31:34;6.50;;;6.30;;
2313;SDS011;42279;51.388;7.000;2023-07-20T21:55:26;9.40;;;8.90;;
2313;SDS011;42279;51.388;7.000;2023-07-20T22:16:42;12.63;;;11.83;;
2313;SDS011;42279;51.388;7.000;2023-07-20T22:22:12;14.10;;;13.30;;
2313;SDS011;42279;51.388;7.000;2023-07-20T22:24:38;13.60;;;12.80;;
2313;SDS011;42279;51.388;7.000;2023-07-20T22:27:04;13.00;;;12.20;;
2313;SDS011;42279;51.388;7.000;2023-07-20T22:29:30;11.53;;;10.73;;
2313;SDS011;42279;51.388;7.000;2023-07-20T22:31:58;11.60;;;10.90;;
2313;SDS011;42279;51.388;7.000;2023-07-20T22:34:26;11.80;;;11.20;;
2313;SDS011;42279;51.388;7.000;2023-07-20T22:36:55;11.90;;;11.10;;
2313;SDS011;42279;51.388;7.000;2023-07-20T22:39:21;12.00;;;11.30;;
2313;SDS011;42279;51.388;7.000;2023-07-20T22:41:47;12.57;;;11.70;;
2313;SDS011;42279;51.388;7.000;2023-07-20T22:44:13;13.17;;;12.27;;
2313;SDS011;42279;51.388;7.000;2023-07-20T22:46:40;10.87;;;10.27;;
2313;SDS011;42279;51.388;7.000;2023-07-20T22:49:07;12.10;;;11.40;;
2313;SDS011;42279;51.388;7.000;2023-07-20T22:51:33;12.47;;;11.67;;
2313;SDS011;42279;51.388;7.000;2023-07-20T22:53:59;12.90;;;12.00;;
2313;SDS011;42279;51.388;7.000;2023-07-20T22:56:25;12.83;;;12.13;;
2313;SDS011;42279;51.388;7.000;2023-07-20T22:58:51;12.87;;;12.00;;
2313;SDS011;42279;51.388;7.000;2023-07-20T23:01:17;14.50;;;13.30;;
2313;SDS011;42279;51.388;7.000;2023-07-20T23:03:43;11.93;;;11.33;;
2313;SDS011;42279;51.388;7.000;2023-07-20T23:06:09;12.00;;;11.30;;
2313;SDS011;42279;51.388;7.000;2023-07-20T23:08:35;10.77;;;10.27;;
2313;SDS011;42279;51.388;7.000;2023-07-20T23:11:01;11.60;;;10.83;;
2313;SDS011;42279;51.388;7.000;2023-07-20T23:13:27;10.87;;;10.27;;
2313;SDS011;42279;51.388;7.000;2023-07-20T23:15:54;11.87;;;11.07;;
2313;SDS011;42279;51.388;7.000;2023-07-20T23:18:20;34.97;;;31.43;;
2313;SDS011;42279;51.388;7.000;2023-07-20T23:20:50;13.70;;;12.70;;
2313;SDS011;42279;51.388;7.000;2023-07-20T23:23:18;13.63;;;12.83;;
2313;SDS011;42279;51.388;7.000;2023-07-20T23:41:25;12.73;;;11.90;;
